sensor_id;sensor_type;location;lat;lon;timestamp;temperature;humidity
19330;DHT22;9799;48.214;16.388;2024-03-17T00:01:04;12.30;99.90
19330;DHT22;9799;48.214;16.388;2024-03-17T00:04:24;12.20;99.90
19330;DHT22;9799;48.214;16.388;2024-03-17T00:07:47;12.30;99.90
19330;DHT22;9799;48.214;16.388;2024-03-17T00:11:08;12.30;99.90
19330;DHT22;9799;48.214;16.388;2024-03-17T00:14:37;12.20;99.90
19330;DHT22;9799;48.214;16.388;2024-03-17T00:17:59;12.20;99.90
19330;DHT22;9799;48.214;16.388;2024-03-17T00:21:20;12.20;99.90
19330;DHT22;9799;48.214;16.388;2024-03-17T00:24:43;12.20;99.90
19330;DHT22;9799;48.214;16.388;2024-03-17T00:28:06;12.20;99.90
19330;DHT22;9799;48.214;16.388;2024-03-17T00:31:27;12.10;99.90
19330;DHT22;9799;48.214;16.388;2024-03-17T00:34:48;12.10;99.90
19330;DHT22;9799;48.214;16.388;2024-03-17T00:38:10;12.00;99.90
19330;DHT22;9799;48.214;16.388;2024-03-17T00:41:31;12.10;99.90
19330;DHT22;9799;48.214;16.388;2024-03-17T00:44:52;12.10;99.90
19330;DHT22;9799;48.214;16.388;2024-03-17T00:48:14;12.00;99.90
19330;DHT22;9799;48.214;16.388;2024-03-17T00:51:35;12.00;99.90
19330;DHT22;9799;48.214;16.388;2024-03-17T00:54:56;11.90;99.90
19330;DHT22;9799;48.214;16.388;2024-03-17T00:58:18;12.00;99.90
19330;DHT22;9799;48.214;16.388;2024-03-17T01:01:39;11.90;99.90
19330;DHT22;9799;48.214;16.388;2024-03-17T01:05:02;11.90;99.90
19330;DHT22;9799;48.214;16.388;2024-03-17T01:08:25;11.90;99.90
19330;DHT22;9799;48.214;16.388;2024-03-17T01:11:46;11.90;99.90
19330;DHT22;9799;48.214;16.388;2024-03-17T01:15:08;11.80;99.90
19330;DHT22;9799;48.214;16.388;2024-03-17T01:18:30;11.80;99.90
19330;DHT22;9799;48.214;16.388;2024-03-17T01:21:53;11.80;99.90
19330;DHT22;9799;48.214;16.388;2024-03-17T01:25:15;11.80;99.90
19330;DHT22;9799;48.214;16.388;2024-03-17T01:28:35;11.80;99.90
19330;DHT22;9799;48.214;16.388;2024-03-17T01:31:56;11.80;99.90
19330;DHT22;9799;48.214;16.388;2024-03-17T01:35:17;11.70;99.90
19330;DHT22;9799;48.214;16.388;2024-03-17T01:38:41;11.60;99.90
19330;DHT22;9799;48.214;16.388;2024-03-17T01:42:02;11.60;99.90
19330;DHT22;9799;48.214;16.388;2024-03-17T01:45:27;11.60;99.90
19330;DHT22;9799;48.214;16.388;2024-03-17T01:48:47;11.50;99.90
19330;DHT22;9799;48.214;16.388;2024-03-17T01:52:09;11.60;99.90
19330;DHT22;9799;48.214;16.388;2024-03-17T01:55:31;11.40;99.90
19330;DHT22;9799;48.214;16.388;2024-03-17T01:58:53;11.30;99.90
19330;DHT22;9799;48.214;16.388;2024-03-17T02:02:14;11.10;99.90
19330;DHT22;9799;48.214;16.388;2024-03-17T02:05:36;10.90;99.90
19330;DHT22;9799;48.214;16.388;2024-03-17T02:08:58;10.80;99.90
19330;DHT22;9799;48.214;16.388;2024-03-17T02:12:21;10.90;99.90
19330;DHT22;9799;48.214;16.388;2024-03-17T02:15:42;10.70;99.90
19330;DHT22;9799;48.214;16.388;2024-03-17T02:19:03;10.80;99.90
19330;DHT22;9799;48.214;16.388;2024-03-17T02:22:26;10.60;99.90
19330;DHT22;9799;48.214;16.388;2024-03-17T02:25:47;10.50;99.90
19330;DHT22;9799;48.214;16.388;2024-03-17T02:29:09;10.50;99.90
19330;DHT22;9799;48.214;16.388;2024-03-17T02:32:30;10.30;99.90
19330;DHT22;9799;48.214;16.388;2024-03-17T02:35:51;10.20;99.90
19330;DHT22;9799;48.214;16.388;2024-03-17T02:39:14;10.20;99.90
19330;DHT22;9799;48.214;16.388;2024-03-17T02:42:54;10.20;99.90
19330;DHT22;9799;48.214;16.388;2024-03-17T02:46:16;10.30;99.90
19330;DHT22;9799;48.214;16.388;2024-03-17T02:49:38;10.10;99.90
19330;DHT22;9799;48.214;16.388;2024-03-17T02:52:59;10.00;99.90
19330;DHT22;9799;48.214;16.388;2024-03-17T02:56:24;9.90;99.90
19330;DHT22;9799;48.214;16.388;2024-03-17T02:59:45;10.00;99.90
19330;DHT22;9799;48.214;16.388;2024-03-17T03:03:06;9.90;99.90
19330;DHT22;9799;48.214;16.388;2024-03-17T03:06:28;9.90;99.90
19330;DHT22;9799;48.214;16.388;2024-03-17T03:09:51;9.90;99.90
19330;DHT22;9799;48.214;16.388;2024-03-17T03:13:13;9.90;99.90
19330;DHT22;9799;48.214;16.388;2024-03-17T03:16:34;9.80;99.90
19330;DHT22;9799;48.214;16.388;2024-03-17T03:19:55;9.80;99.90
19330;DHT22;9799;48.214;16.388;2024-03-17T03:23:17;9.70;99.90
19330;DHT22;9799;48.214;16.388;2024-03-17T03:26:38;9.90;99.90
19330;DHT22;9799;48.214;16.388;2024-03-17T03:30:01;9.70;99.90
19330;DHT22;9799;48.214;16.388;2024-03-17T03:33:24;9.60;99.90
19330;DHT22;9799;48.214;16.388;2024-03-17T03:36:45;9.50;99.90
19330;DHT22;9799;48.214;16.388;2024-03-17T03:40:07;9.50;99.90
19330;DHT22;9799;48.214;16.388;2024-03-17T03:43:36;9.50;99.90
19330;DHT22;9799;48.214;16.388;2024-03-17T03:46:59;9.70;99.90
19330;DHT22;9799;48.214;16.388;2024-03-17T03:50:21;9.60;99.90
19330;DHT22;9799;48.214;16.388;2024-03-17T03:53:43;9.50;99.90
19330;DHT22;9799;48.214;16.388;2024-03-17T03:57:04;9.30;99.90
19330;DHT22;9799;48.214;16.388;2024-03-17T04:00:26;9.40;99.90
19330;DHT22;9799;48.214;16.388;2024-03-17T04:03:52;9.30;99.90
19330;DHT22;9799;48.214;16.388;2024-03-17T04:07:13;9.30;99.90
19330;DHT22;9799;48.214;16.388;2024-03-17T04:10:35;9.30;99.90
19330;DHT22;9799;48.214;16.388;2024-03-17T04:13:56;9.40;99.90
19330;DHT22;9799;48.214;16.388;2024-03-17T04:17:17;9.30;99.90
19330;DHT22;9799;48.214;16.388;2024-03-17T04:20:41;9.20;99.90
19330;DHT22;9799;48.214;16.388;2024-03-17T04:24:03;9.20;99.90
19330;DHT22;9799;48.214;16.388;2024-03-17T04:27:24;9.30;99.90
19330;DHT22;9799;48.214;16.388;2024-03-17T04:30:45;9.40;99.90
19330;DHT22;9799;48.214;16.388;2024-03-17T04:34:07;9.40;99.90
19330;DHT22;9799;48.214;16.388;2024-03-17T04:37:30;9.30;99.90
19330;DHT22;9799;48.214;16.388;2024-03-17T04:40:51;9.10;99.90
19330;DHT22;9799;48.214;16.388;2024-03-17T04:44:17;9.10;99.90
19330;DHT22;9799;48.214;16.388;2024-03-17T04:47:39;9.10;99.90
19330;DHT22;9799;48.214;16.388;2024-03-17T04:51:00;9.20;99.90
19330;DHT22;9799;48.214;16.388;2024-03-17T04:54:23;9.20;99.90
19330;DHT22;9799;48.214;16.388;2024-03-17T04:57:44;9.20;99.90
19330;DHT22;9799;48.214;16.388;2024-03-17T05:01:06;9.30;99.90
19330;DHT22;9799;48.214;16.388;2024-03-17T05:04:27;9.20;99.90
19330;DHT22;9799;48.214;16.388;2024-03-17T05:07:49;9.30;99.90
19330;DHT22;9799;48.214;16.388;2024-03-17T05:11:11;9.20;99.90
19330;DHT22;9799;48.214;16.388;2024-03-17T05:14:34;9.20;99.90
19330;DHT22;9799;48.214;16.388;2024-03-17T05:17:55;9.30;99.90
19330;DHT22;9799;48.214;16.388;2024-03-17T05:21:16;9.30;99.90
19330;DHT22;9799;48.214;16.388;2024-03-17T05:24:38;9.40;99.90
19330;DHT22;9799;48.214;16.388;2024-03-17T05:28:00;9.30;99.90
19330;DHT22;9799;48.214;16.388;2024-03-17T05:31:21;9.10;99.90
19330;DHT22;9799;48.214;16.388;2024-03-17T05:34:42;9.00;99.90
19330;DHT22;9799;48.214;16.388;2024-03-17T05:38:04;9.00;99.90
19330;DHT22;9799;48.214;16.388;2024-03-17T05:41:27;9.00;99.90
19330;DHT22;9799;48.214;16.388;2024-03-17T05:44:49;8.90;99.90
19330;DHT22;9799;48.214;16.388;2024-03-17T05:48:13;9.10;99.90
19330;DHT22;9799;48.214;16.388;2024-03-17T05:51:34;9.10;99.90
19330;DHT22;9799;48.214;16.388;2024-03-17T05:54:55;9.20;99.90
19330;DHT22;9799;48.214;16.388;2024-03-17T05:58:16;9.20;99.90
19330;DHT22;9799;48.214;16.388;2024-03-17T06:01:39;9.30;99.90
19330;DHT22;9799;48.214;16.388;2024-03-17T06:05:00;9.30;99.90
19330;DHT22;9799;48.214;16.388;2024-03-17T06:08:24;9.30;99.90
19330;DHT22;9799;48.214;16.388;2024-03-17T06:11:46;9.40;99.90
19330;DHT22;9799;48.214;16.388;2024-03-17T06:15:08;9.30;99.90
19330;DHT22;9799;48.214;16.388;2024-03-17T06:18:31;9.40;99.90
19330;DHT22;9799;48.214;16.388;2024-03-17T06:21:52;9.50;99.90
19330;DHT22;9799;48.214;16.388;2024-03-17T06:25:14;9.40;99.90
19330;DHT22;9799;48.214;16.388;2024-03-17T06:28:35;9.50;99.90
19330;DHT22;9799;48.214;16.388;2024-03-17T06:31:56;9.50;99.90
19330;DHT22;9799;48.214;16.388;2024-03-17T06:35:19;9.60;99.90
19330;DHT22;9799;48.214;16.388;2024-03-17T06:38:40;9.70;99.90
19330;DHT22;9799;48.214;16.388;2024-03-17T06:42:02;9.80;99.90
19330;DHT22;9799;48.214;16.388;2024-03-17T06:45:23;9.80;99.90
19330;DHT22;9799;48.214;16.388;2024-03-17T06:48:45;10.00;99.90
19330;DHT22;9799;48.214;16.388;2024-03-17T06:52:07;9.90;99.90
19330;DHT22;9799;48.214;16.388;2024-03-17T06:55:29;10.00;99.90
19330;DHT22;9799;48.214;16.388;2024-03-17T06:58:50;10.10;99.90
19330;DHT22;9799;48.214;16.388;2024-03-17T07:02:13;10.00;99.90
19330;DHT22;9799;48.214;16.388;2024-03-17T07:05:37;9.90;99.90
19330;DHT22;9799;48.214;16.388;2024-03-17T07:08:59;10.00;99.90
19330;DHT22;9799;48.214;16.388;2024-03-17T07:12:21;10.10;99.90
19330;DHT22;9799;48.214;16.388;2024-03-17T07:15:47;9.90;99.90
19330;DHT22;9799;48.214;16.388;2024-03-17T07:19:08;9.90;99.90
19330;DHT22;9799;48.214;16.388;2024-03-17T07:22:29;10.10;99.90
19330;DHT22;9799;48.214;16.388;2024-03-17T07:25:55;9.90;99.90
19330;DHT22;9799;48.214;16.388;2024-03-17T07:29:17;10.10;99.90
19330;DHT22;9799;48.214;16.388;2024-03-17T07:32:40;10.20;99.90
19330;DHT22;9799;48.214;16.388;2024-03-17T07:36:01;10.10;99.90
19330;DHT22;9799;48.214;16.388;2024-03-17T07:39:23;10.20;99.90
19330;DHT22;9799;48.214;16.388;2024-03-17T07:42:46;10.50;99.90
19330;DHT22;9799;48.214;16.388;2024-03-17T07:46:08;10.40;99.90
19330;DHT22;9799;48.214;16.388;2024-03-17T07:49:31;10.50;99.90
19330;DHT22;9799;48.214;16.388;2024-03-17T07:52:53;10.70;99.90
19330;DHT22;9799;48.214;16.388;2024-03-17T07:56:15;10.70;99.90
19330;DHT22;9799;48.214;16.388;2024-03-17T07:59:38;10.60;99.90
19330;DHT22;9799;48.214;16.388;2024-03-17T08:02:59;10.70;99.90
19330;DHT22;9799;48.214;16.388;2024-03-17T08:06:20;10.80;99.90
19330;DHT22;9799;48.214;16.388;2024-03-17T08:09:42;10.80;99.90
19330;DHT22;9799;48.214;16.388;2024-03-17T08:13:03;10.40;99.90
19330;DHT22;9799;48.214;16.388;2024-03-17T08:16:26;10.50;99.90
19330;DHT22;9799;48.214;16.388;2024-03-17T08:19:48;10.60;99.90
19330;DHT22;9799;48.214;16.388;2024-03-17T08:23:09;10.50;99.90
19330;DHT22;9799;48.214;16.388;2024-03-17T08:26:31;10.60;99.90
19330;DHT22;9799;48.214;16.388;2024-03-17T08:29:53;10.60;99.40
19330;DHT22;9799;48.214;16.388;2024-03-17T08:33:15;10.70;99.90
19330;DHT22;9799;48.214;16.388;2024-03-17T08:36:36;10.90;98.80
19330;DHT22;9799;48.214;16.388;2024-03-17T08:39:58;10.90;98.60
19330;DHT22;9799;48.214;16.388;2024-03-17T08:43:19;11.10;98.00
19330;DHT22;9799;48.214;16.388;2024-03-17T08:46:41;11.10;97.20
19330;DHT22;9799;48.214;16.388;2024-03-17T08:50:06;11.10;95.90
19330;DHT22;9799;48.214;16.388;2024-03-17T08:53:28;11.20;97.00
19330;DHT22;9799;48.214;16.388;2024-03-17T08:56:49;11.20;96.10
19330;DHT22;9799;48.214;16.388;2024-03-17T09:00:12;11.20;96.00
19330;DHT22;9799;48.214;16.388;2024-03-17T09:03:34;11.10;94.70
19330;DHT22;9799;48.214;16.388;2024-03-17T09:06:57;11.00;95.40
19330;DHT22;9799;48.214;16.388;2024-03-17T09:10:20;11.00;94.90
19330;DHT22;9799;48.214;16.388;2024-03-17T09:13:42;11.10;95.70
19330;DHT22;9799;48.214;16.388;2024-03-17T09:17:03;11.20;95.40
19330;DHT22;9799;48.214;16.388;2024-03-17T09:20:25;11.50;95.20
19330;DHT22;9799;48.214;16.388;2024-03-17T09:23:47;11.60;95.30
19330;DHT22;9799;48.214;16.388;2024-03-17T09:27:09;11.60;95.30
19330;DHT22;9799;48.214;16.388;2024-03-17T09:30:30;11.70;95.00
19330;DHT22;9799;48.214;16.388;2024-03-17T09:33:51;11.80;94.80
19330;DHT22;9799;48.214;16.388;2024-03-17T09:37:13;11.90;94.90
19330;DHT22;9799;48.214;16.388;2024-03-17T09:40:37;11.90;95.10
19330;DHT22;9799;48.214;16.388;2024-03-17T09:43:58;11.80;94.40
19330;DHT22;9799;48.214;16.388;2024-03-17T09:47:20;11.60;94.20
19330;DHT22;9799;48.214;16.388;2024-03-17T09:50:42;11.60;93.80
19330;DHT22;9799;48.214;16.388;2024-03-17T09:54:06;11.80;94.30
19330;DHT22;9799;48.214;16.388;2024-03-17T09:57:37;11.90;93.40
19330;DHT22;9799;48.214;16.388;2024-03-17T10:00:58;12.00;92.50
19330;DHT22;9799;48.214;16.388;2024-03-17T10:04:31;12.10;92.60
19330;DHT22;9799;48.214;16.388;2024-03-17T10:07:53;12.00;92.30
19330;DHT22;9799;48.214;16.388;2024-03-17T10:11:15;11.90;92.00
19330;DHT22;9799;48.214;16.388;2024-03-17T10:14:38;12.30;91.70
19330;DHT22;9799;48.214;16.388;2024-03-17T10:18:00;12.30;91.60
19330;DHT22;9799;48.214;16.388;2024-03-17T10:21:25;12.30;92.00
19330;DHT22;9799;48.214;16.388;2024-03-17T10:24:59;12.20;92.20
19330;DHT22;9799;48.214;16.388;2024-03-17T10:28:21;12.40;91.80
19330;DHT22;9799;48.214;16.388;2024-03-17T10:31:44;12.40;91.70
19330;DHT22;9799;48.214;16.388;2024-03-17T10:35:25;12.50;90.60
19330;DHT22;9799;48.214;16.388;2024-03-17T10:38:51;12.40;91.10
19330;DHT22;9799;48.214;16.388;2024-03-17T10:42:13;12.70;91.50
19330;DHT22;9799;48.214;16.388;2024-03-17T10:45:35;12.70;90.30
19330;DHT22;9799;48.214;16.388;2024-03-17T10:49:00;12.80;90.70
19330;DHT22;9799;48.214;16.388;2024-03-17T10:52:22;12.80;90.20
19330;DHT22;9799;48.214;16.388;2024-03-17T10:55:46;12.60;90.30
19330;DHT22;9799;48.214;16.388;2024-03-17T10:59:09;12.70;89.80
19330;DHT22;9799;48.214;16.388;2024-03-17T11:02:32;12.80;89.90
19330;DHT22;9799;48.214;16.388;2024-03-17T11:05:56;12.50;90.00
19330;DHT22;9799;48.214;16.388;2024-03-17T11:09:18;12.80;89.70
19330;DHT22;9799;48.214;16.388;2024-03-17T11:12:42;12.90;91.50
19330;DHT22;9799;48.214;16.388;2024-03-17T11:16:04;12.50;89.40
19330;DHT22;9799;48.214;16.388;2024-03-17T11:19:25;12.40;90.40
19330;DHT22;9799;48.214;16.388;2024-03-17T11:22:49;12.60;90.20
19330;DHT22;9799;48.214;16.388;2024-03-17T11:26:11;13.10;90.90
19330;DHT22;9799;48.214;16.388;2024-03-17T11:29:32;13.30;88.50
19330;DHT22;9799;48.214;16.388;2024-03-17T11:32:53;13.20;88.30
19330;DHT22;9799;48.214;16.388;2024-03-17T11:36:33;13.20;87.90
19330;DHT22;9799;48.214;16.388;2024-03-17T11:39:57;13.30;87.40
19330;DHT22;9799;48.214;16.388;2024-03-17T11:43:19;13.60;88.00
19330;DHT22;9799;48.214;16.388;2024-03-17T11:46:40;13.60;86.90
19330;DHT22;9799;48.214;16.388;2024-03-17T11:50:03;13.60;86.30
19330;DHT22;9799;48.214;16.388;2024-03-17T11:53:25;13.40;86.90
19330;DHT22;9799;48.214;16.388;2024-03-17T11:56:50;13.50;85.70
19330;DHT22;9799;48.214;16.388;2024-03-17T12:00:22;13.20;86.60
19330;DHT22;9799;48.214;16.388;2024-03-17T12:03:44;13.20;87.10
19330;DHT22;9799;48.214;16.388;2024-03-17T12:07:12;13.10;87.00
19330;DHT22;9799;48.214;16.388;2024-03-17T12:10:33;13.30;86.60
19330;DHT22;9799;48.214;16.388;2024-03-17T12:13:56;13.30;86.50
19330;DHT22;9799;48.214;16.388;2024-03-17T12:17:21;13.30;86.40
19330;DHT22;9799;48.214;16.388;2024-03-17T12:20:47;13.20;86.70
19330;DHT22;9799;48.214;16.388;2024-03-17T12:24:16;13.10;85.00
19330;DHT22;9799;48.214;16.388;2024-03-17T12:27:44;13.00;85.40
19330;DHT22;9799;48.214;16.388;2024-03-17T12:31:07;13.20;85.40
19330;DHT22;9799;48.214;16.388;2024-03-17T12:34:30;13.30;85.60
19330;DHT22;9799;48.214;16.388;2024-03-17T12:37:51;13.50;85.10
19330;DHT22;9799;48.214;16.388;2024-03-17T12:41:16;13.50;85.10
19330;DHT22;9799;48.214;16.388;2024-03-17T12:44:38;13.40;83.70
19330;DHT22;9799;48.214;16.388;2024-03-17T12:48:03;13.40;83.80
19330;DHT22;9799;48.214;16.388;2024-03-17T12:51:25;13.40;84.20
19330;DHT22;9799;48.214;16.388;2024-03-17T12:54:45;13.40;84.40
19330;DHT22;9799;48.214;16.388;2024-03-17T12:58:26;13.50;84.50
19330;DHT22;9799;48.214;16.388;2024-03-17T13:02:09;13.50;84.10
19330;DHT22;9799;48.214;16.388;2024-03-17T13:05:32;13.40;84.20
19330;DHT22;9799;48.214;16.388;2024-03-17T13:08:54;13.60;83.80
19330;DHT22;9799;48.214;16.388;2024-03-17T13:12:15;13.70;83.50
19330;DHT22;9799;48.214;16.388;2024-03-17T13:15:36;13.80;83.60
19330;DHT22;9799;48.214;16.388;2024-03-17T13:18:57;13.80;82.70
19330;DHT22;9799;48.214;16.388;2024-03-17T13:22:20;13.50;83.50
19330;DHT22;9799;48.214;16.388;2024-03-17T13:25:41;13.70;84.40
19330;DHT22;9799;48.214;16.388;2024-03-17T13:29:03;13.90;84.40
19330;DHT22;9799;48.214;16.388;2024-03-17T13:32:24;14.00;83.80
19330;DHT22;9799;48.214;16.388;2024-03-17T13:35:46;14.00;83.50
19330;DHT22;9799;48.214;16.388;2024-03-17T13:39:09;13.90;83.50
19330;DHT22;9799;48.214;16.388;2024-03-17T13:42:30;13.90;83.60
19330;DHT22;9799;48.214;16.388;2024-03-17T13:45:52;13.80;83.80
19330;DHT22;9799;48.214;16.388;2024-03-17T13:49:13;13.80;84.40
19330;DHT22;9799;48.214;16.388;2024-03-17T13:52:34;13.90;84.50
19330;DHT22;9799;48.214;16.388;2024-03-17T13:55:57;13.80;84.70
19330;DHT22;9799;48.214;16.388;2024-03-17T13:59:18;13.70;84.40
19330;DHT22;9799;48.214;16.388;2024-03-17T14:02:39;13.70;84.30
19330;DHT22;9799;48.214;16.388;2024-03-17T14:06:00;13.60;84.90
19330;DHT22;9799;48.214;16.388;2024-03-17T14:09:21;13.70;84.20
19330;DHT22;9799;48.214;16.388;2024-03-17T14:12:45;13.60;84.40
19330;DHT22;9799;48.214;16.388;2024-03-17T14:16:06;13.70;84.30
19330;DHT22;9799;48.214;16.388;2024-03-17T14:19:28;13.70;83.50
19330;DHT22;9799;48.214;16.388;2024-03-17T14:22:49;13.80;84.30
19330;DHT22;9799;48.214;16.388;2024-03-17T14:26:13;13.80;84.80
19330;DHT22;9799;48.214;16.388;2024-03-17T14:29:35;13.70;84.90
19330;DHT22;9799;48.214;16.388;2024-03-17T14:32:57;13.80;85.40
19330;DHT22;9799;48.214;16.388;2024-03-17T14:36:18;13.80;84.90
19330;DHT22;9799;48.214;16.388;2024-03-17T14:39:46;13.90;84.50
19330;DHT22;9799;48.214;16.388;2024-03-17T14:43:07;13.90;84.40
19330;DHT22;9799;48.214;16.388;2024-03-17T14:46:30;14.00;83.80
19330;DHT22;9799;48.214;16.388;2024-03-17T14:49:51;13.70;83.40
19330;DHT22;9799;48.214;16.388;2024-03-17T14:53:13;13.60;83.60
19330;DHT22;9799;48.214;16.388;2024-03-17T14:56:34;13.70;84.00
19330;DHT22;9799;48.214;16.388;2024-03-17T14:59:56;13.70;84.50
19330;DHT22;9799;48.214;16.388;2024-03-17T15:03:20;13.60;84.10
19330;DHT22;9799;48.214;16.388;2024-03-17T15:06:41;13.40;84.30
19330;DHT22;9799;48.214;16.388;2024-03-17T15:10:04;13.40;83.80
19330;DHT22;9799;48.214;16.388;2024-03-17T15:13:26;13.40;84.20
19330;DHT22;9799;48.214;16.388;2024-03-17T15:16:47;13.30;84.20
19330;DHT22;9799;48.214;16.388;2024-03-17T15:20:11;13.30;84.00
19330;DHT22;9799;48.214;16.388;2024-03-17T15:23:37;13.30;83.90
19330;DHT22;9799;48.214;16.388;2024-03-17T15:26:59;13.20;83.70
19330;DHT22;9799;48.214;16.388;2024-03-17T15:30:21;13.30;83.40
19330;DHT22;9799;48.214;16.388;2024-03-17T15:33:42;13.30;83.60
19330;DHT22;9799;48.214;16.388;2024-03-17T15:37:05;13.20;83.60
19330;DHT22;9799;48.214;16.388;2024-03-17T15:40:28;13.30;83.40
19330;DHT22;9799;48.214;16.388;2024-03-17T15:43:49;13.30;83.20
19330;DHT22;9799;48.214;16.388;2024-03-17T15:47:11;13.20;83.40
19330;DHT22;9799;48.214;16.388;2024-03-17T15:50:32;13.30;83.70
19330;DHT22;9799;48.214;16.388;2024-03-17T15:53:56;13.30;83.50
19330;DHT22;9799;48.214;16.388;2024-03-17T15:57:17;13.20;83.60
19330;DHT22;9799;48.214;16.388;2024-03-17T16:00:38;13.10;84.00
19330;DHT22;9799;48.214;16.388;2024-03-17T16:04:00;13.00;83.70
19330;DHT22;9799;48.214;16.388;2024-03-17T16:07:22;12.90;84.10
19330;DHT22;9799;48.214;16.388;2024-03-17T16:10:46;13.00;84.10
19330;DHT22;9799;48.214;16.388;2024-03-17T16:14:10;12.90;83.90
19330;DHT22;9799;48.214;16.388;2024-03-17T16:17:33;12.90;83.90
19330;DHT22;9799;48.214;16.388;2024-03-17T16:21:05;12.90;84.20
19330;DHT22;9799;48.214;16.388;2024-03-17T16:24:27;12.90;84.30
19330;DHT22;9799;48.214;16.388;2024-03-17T16:27:49;12.90;84.50
19330;DHT22;9799;48.214;16.388;2024-03-17T16:31:11;12.90;84.70
19330;DHT22;9799;48.214;16.388;2024-03-17T16:34:33;12.80;84.40
19330;DHT22;9799;48.214;16.388;2024-03-17T16:37:54;12.70;84.60
19330;DHT22;9799;48.214;16.388;2024-03-17T16:41:15;12.70;84.40
19330;DHT22;9799;48.214;16.388;2024-03-17T16:44:45;12.70;84.40
19330;DHT22;9799;48.214;16.388;2024-03-17T16:48:09;12.70;84.30
19330;DHT22;9799;48.214;16.388;2024-03-17T16:51:30;12.60;84.10
19330;DHT22;9799;48.214;16.388;2024-03-17T16:54:52;12.60;84.00
19330;DHT22;9799;48.214;16.388;2024-03-17T16:58:14;12.60;84.20
19330;DHT22;9799;48.214;16.388;2024-03-17T17:01:38;12.50;84.20
19330;DHT22;9799;48.214;16.388;2024-03-17T17:05:01;12.50;84.50
19330;DHT22;9799;48.214;16.388;2024-03-17T17:08:25;12.50;84.80
19330;DHT22;9799;48.214;16.388;2024-03-17T17:11:49;12.40;85.00
19330;DHT22;9799;48.214;16.388;2024-03-17T17:15:14;12.50;85.00
19330;DHT22;9799;48.214;16.388;2024-03-17T17:18:51;12.40;85.70
19330;DHT22;9799;48.214;16.388;2024-03-17T17:22:13;12.50;85.20
19330;DHT22;9799;48.214;16.388;2024-03-17T17:25:36;12.40;85.40
19330;DHT22;9799;48.214;16.388;2024-03-17T17:28:58;12.40;85.30
19330;DHT22;9799;48.214;16.388;2024-03-17T17:32:20;12.40;86.30
19330;DHT22;9799;48.214;16.388;2024-03-17T17:35:43;12.40;85.50
19330;DHT22;9799;48.214;16.388;2024-03-17T17:39:05;12.40;85.90
19330;DHT22;9799;48.214;16.388;2024-03-17T17:42:26;12.30;86.10
19330;DHT22;9799;48.214;16.388;2024-03-17T17:45:47;12.30;86.00
19330;DHT22;9799;48.214;16.388;2024-03-17T17:49:08;12.30;86.00
19330;DHT22;9799;48.214;16.388;2024-03-17T17:52:31;12.20;85.80
19330;DHT22;9799;48.214;16.388;2024-03-17T17:55:54;12.20;86.10
19330;DHT22;9799;48.214;16.388;2024-03-17T17:59:16;12.20;86.50
19330;DHT22;9799;48.214;16.388;2024-03-17T18:02:37;12.10;86.70
19330;DHT22;9799;48.214;16.388;2024-03-17T18:05:59;12.00;87.00
19330;DHT22;9799;48.214;16.388;2024-03-17T18:09:23;12.00;87.00
19330;DHT22;9799;48.214;16.388;2024-03-17T18:12:49;12.00;87.20
19330;DHT22;9799;48.214;16.388;2024-03-17T18:16:11;12.00;87.40
19330;DHT22;9799;48.214;16.388;2024-03-17T18:19:34;12.00;87.40
19330;DHT22;9799;48.214;16.388;2024-03-17T18:22:56;11.90;88.00
19330;DHT22;9799;48.214;16.388;2024-03-17T18:26:19;11.90;87.50
19330;DHT22;9799;48.214;16.388;2024-03-17T18:29:41;11.90;87.70
19330;DHT22;9799;48.214;16.388;2024-03-17T18:33:04;11.80;88.10
19330;DHT22;9799;48.214;16.388;2024-03-17T18:36:26;11.90;87.90
19330;DHT22;9799;48.214;16.388;2024-03-17T18:39:47;11.80;88.00
19330;DHT22;9799;48.214;16.388;2024-03-17T18:43:10;11.70;88.20
19330;DHT22;9799;48.214;16.388;2024-03-17T18:46:32;11.80;88.40
19330;DHT22;9799;48.214;16.388;2024-03-17T18:49:53;11.70;88.40
19330;DHT22;9799;48.214;16.388;2024-03-17T18:53:14;11.70;88.30
19330;DHT22;9799;48.214;16.388;2024-03-17T18:56:36;11.70;88.50
19330;DHT22;9799;48.214;16.388;2024-03-17T18:59:59;11.70;88.60
19330;DHT22;9799;48.214;16.388;2024-03-17T19:03:21;11.80;88.60
19330;DHT22;9799;48.214;16.388;2024-03-17T19:06:47;11.70;88.40
19330;DHT22;9799;48.214;16.388;2024-03-17T19:10:10;11.70;88.40
19330;DHT22;9799;48.214;16.388;2024-03-17T19:13:33;11.70;88.80
19330;DHT22;9799;48.214;16.388;2024-03-17T19:16:57;11.60;88.80
19330;DHT22;9799;48.214;16.388;2024-03-17T19:20:18;11.70;89.10
19330;DHT22;9799;48.214;16.388;2024-03-17T19:23:42;11.70;88.80
19330;DHT22;9799;48.214;16.388;2024-03-17T19:27:04;11.70;88.20
19330;DHT22;9799;48.214;16.388;2024-03-17T19:30:26;11.60;88.60
19330;DHT22;9799;48.214;16.388;2024-03-17T19:33:49;11.50;88.70
19330;DHT22;9799;48.214;16.388;2024-03-17T19:37:10;11.40;89.30
19330;DHT22;9799;48.214;16.388;2024-03-17T19:40:33;11.50;88.80
19330;DHT22;9799;48.214;16.388;2024-03-17T19:43:55;11.50;89.20
19330;DHT22;9799;48.214;16.388;2024-03-17T19:47:17;11.60;88.90
19330;DHT22;9799;48.214;16.388;2024-03-17T19:50:45;11.40;89.00
19330;DHT22;9799;48.214;16.388;2024-03-17T19:54:06;11.40;89.00
19330;DHT22;9799;48.214;16.388;2024-03-17T19:57:28;11.30;89.50
19330;DHT22;9799;48.214;16.388;2024-03-17T20:00:50;11.20;90.00
19330;DHT22;9799;48.214;16.388;2024-03-17T20:04:11;11.30;89.70
19330;DHT22;9799;48.214;16.388;2024-03-17T20:07:35;11.30;89.70
19330;DHT22;9799;48.214;16.388;2024-03-17T20:10:57;11.30;89.70
19330;DHT22;9799;48.214;16.388;2024-03-17T20:14:19;11.20;90.00
19330;DHT22;9799;48.214;16.388;2024-03-17T20:17:40;11.20;90.00
19330;DHT22;9799;48.214;16.388;2024-03-17T20:21:02;11.30;90.00
19330;DHT22;9799;48.214;16.388;2024-03-17T20:24:24;11.20;90.10
19330;DHT22;9799;48.214;16.388;2024-03-17T20:27:46;11.10;90.10
19330;DHT22;9799;48.214;16.388;2024-03-17T20:31:09;11.10;90.10
19330;DHT22;9799;48.214;16.388;2024-03-17T20:34:35;11.10;90.10
19330;DHT22;9799;48.214;16.388;2024-03-17T20:37:57;11.00;90.50
19330;DHT22;9799;48.214;16.388;2024-03-17T20:41:21;11.00;90.40
19330;DHT22;9799;48.214;16.388;2024-03-17T20:44:42;11.00;90.50
19330;DHT22;9799;48.214;16.388;2024-03-17T20:48:04;10.80;90.70
19330;DHT22;9799;48.214;16.388;2024-03-17T20:51:26;10.80;90.80
19330;DHT22;9799;48.214;16.388;2024-03-17T20:54:48;10.90;91.00
19330;DHT22;9799;48.214;16.388;2024-03-17T20:58:12;10.90;90.90
19330;DHT22;9799;48.214;16.388;2024-03-17T21:01:34;10.90;90.80
19330;DHT22;9799;48.214;16.388;2024-03-17T21:04:56;10.80;90.90
19330;DHT22;9799;48.214;16.388;2024-03-17T21:08:18;10.80;91.20
19330;DHT22;9799;48.214;16.388;2024-03-17T21:11:39;10.90;90.70
19330;DHT22;9799;48.214;16.388;2024-03-17T21:15:06;10.90;90.50
19330;DHT22;9799;48.214;16.388;2024-03-17T21:18:29;10.90;90.50
19330;DHT22;9799;48.214;16.388;2024-03-17T21:21:50;10.90;90.50
19330;DHT22;9799;48.214;16.388;2024-03-17T21:25:12;10.80;90.60